首页
METAR-TAF:

METAR-TAF

机场 :

Crestview, 佛罗里达州, 美国

纬度: 30-46-20N, 经度: 086-31-12W, 海拔: 65米

当前天气观测

该预报发布于31分钟前的23:53 UTC
静风
温度 23°C
湿度 94%
气压 1013 hPa
能見度: 6.4公里
散云层高于1200英尺
多云层高于3900英尺
阴天层高于7000英尺
小雨, 轻雾

METAR: KCEW 262353Z AUTO 00000KT 4SM -RA BR SCT012 BKN039 OVC070 23/22 A2990 RMK AO2 LTG DSNT W RAB16 SLP121 P0019 60037 T02330222 10283 20228 58001

时间: 19:24 (00:24 UTC)


TAF: 丢失

超过4000个机场的气象观测和天气预报(METAR&TAF报告)。

可查询的气象台以黄色和红色小点在地图上表示。

将鼠标移到小点上方,可查看气象台名称。

然后点击查看天气观测和预报。

如需切换地图:点击带黑十字的绿色按钮放大地图;点击带横线的绿色按钮缩小地图;或者点击绿色箭头查看邻近地区的地图。


METAR-TAF: